Time;durP1;ratioP1;P1;durP2;ratioP2;P2;SDS_P1;SDS_P2;PMS_P1;PMS_P2;Temp;Humidity;BMP_temperature;BMP_pressure;BME280_temperature;BME280_humidity;BME280_pressure;Samples;Min_cycle;Max_cycle;Signal;HPM_P1;HPM_P2
2022/12/15 00:41:00;;;;;;;1999.90;999.90;;;-0.30;99.90;;;;;;5027287;28;20482;-70
2022/12/15 00:43:27;;;;;;;1999.90;999.90;;;-0.30;99.90;;;;;;5027129;28;20469;-70
2022/12/15 00:48:40;;;;;;;1999.90;999.90;;;-0.30;99.90;;;;;;5027313;28;20432;-70
2022/12/15 00:51:06;;;;;;;1999.90;999.90;;;-0.30;99.90;;;;;;5026934;28;20592;-70
2022/12/15 01:21:01;;;;;;;1999.90;999.90;;;-0.20;99.90;;;;;;5008228;28;20428;-69
2022/12/15 01:23:28;;;;;;;1999.90;999.90;;;-0.20;99.90;;;;;;5022186;28;20469;-70
2022/12/15 01:25:55;;;;;;;1999.90;999.90;;;-0.30;99.90;;;;;;5018033;28;21154;-70
2022/12/15 01:28:23;;;;;;;1999.90;999.90;;;-0.30;99.90;;;;;;5014297;28;21257;-70
2022/12/15 01:30:51;;;;;;;1999.90;999.90;;;-0.40;99.90;;;;;;5024929;28;20479;-70
2022/12/15 01:33:20;;;;;;;1999.90;999.90;;;-0.40;99.90;;;;;;5023816;28;20468;-69
2022/12/15 01:35:55;;;;;;;1999.90;999.90;;;-0.30;99.90;;;;;;5023290;28;20437;-72
2022/12/15 01:38:22;;;;;;;1999.90;999.90;;;-0.30;99.90;;;;;;5023705;28;20560;-72
2022/12/15 01:40:51;;;;;;;1999.90;999.90;;;-0.20;99.90;;;;;;5008258;28;20442;-70
2022/12/15 01:43:21;;;;;;;1999.90;999.90;;;-0.20;99.90;;;;;;5028677;28;20460;-70
2022/12/15 01:46:04;;;;;;;1999.90;999.90;;;-0.20;99.90;;;;;;5029968;28;20527;-70
2022/12/15 01:48:40;;;;;;;1999.90;999.90;;;-0.20;99.90;;;;;;5029709;28;20455;-70
2022/12/15 01:51:13;;;;;;;1999.90;999.90;;;-0.30;99.90;;;;;;5029611;28;20483;-71
2022/12/15 01:53:43;;;;;;;1999.90;999.90;;;-0.20;99.90;;;;;;5029866;28;20473;-69
2022/12/15 01:56:11;;;;;;;1999.90;999.90;;;-0.30;99.90;;;;;;5029666;28;20992;-70
2022/12/15 01:58:41;;;;;;;1999.90;999.90;;;-0.30;99.90;;;;;;5029328;28;20459;-69
2022/12/15 02:01:09;;;;;;;1999.90;999.90;;;-0.30;99.90;;;;;;5029246;28;20441;-69
2022/12/15 02:03:39;;;;;;;1999.90;999.90;;;-0.40;99.90;;;;;;5029684;28;20476;-70
2022/12/15 02:06:08;;;;;;;1999.90;999.90;;;-0.40;99.90;;;;;;5029661;28;20440;-70
2022/12/15 02:08:35;;;;;;;1999.90;999.90;;;-0.40;99.90;;;;;;5029316;28;20452;-69
2022/12/15 02:11:17;;;;;;;1999.90;999.90;;;-0.40;99.90;;;;;;5029321;28;20473;-72
2022/12/15 02:13:56;;;;;;;1999.90;999.90;;;-0.40;99.90;;;;;;5029334;28;20484;-70
2022/12/15 02:16:36;;;;;;;1999.90;999.90;;;-0.40;99.90;;;;;;5029379;28;20464;-70
2022/12/15 02:19:29;;;;;;;1999.90;999.90;;;-0.40;99.90;;;;;;5029192;28;20456;-70
2022/12/15 02:22:06;;;;;;;1999.90;999.90;;;-0.30;99.90;;;;;;5029358;28;20954;-70
2022/12/15 02:25:01;;;;;;;1999.90;999.90;;;-0.30;99.90;;;;;;5029041;28;20452;-70
2022/12/15 02:27:47;;;;;;;1999.90;999.90;;;-0.20;99.90;;;;;;5029112;28;20449;-71
2022/12/15 02:30:22;;;;;;;1999.90;999.90;;;-0.20;99.90;;;;;;5028217;28;20455;-70
2022/12/15 02:32:58;;;;;;;1999.90;999.90;;;-0.20;99.90;;;;;;5029841;28;20977;-69
2022/12/15 02:35:31;;;;;;;1999.90;999.90;;;-0.30;99.90;;;;;;5029293;28;20444;-71
2022/12/15 02:37:57;;;;;;;1999.90;999.90;;;-0.30;99.90;;;;;;5028870;28;20445;-70
2022/12/15 02:40:24;;;;;;;1999.90;999.90;;;-0.40;99.90;;;;;;5028511;28;20470;-71
2022/12/15 02:42:55;;;;;;;1999.90;999.90;;;-0.40;99.90;;;;;;5028580;28;20473;-70
2022/12/15 02:45:34;;;;;;;1999.90;999.90;;;-0.50;99.90;;;;;;5028666;28;20448;-69
2022/12/15 02:48:12;;;;;;;1999.90;999.90;;;-0.50;99.90;;;;;;4989524;28;20450;-70
2022/12/15 02:51:02;;;;;;;1999.90;999.90;;;-0.50;99.90;;;;;;4989089;28;20447;-70
2022/12/15 02:53:46;;;;;;;1999.90;999.90;;;-0.50;99.90;;;;;;4980066;28;20462;-72
2022/12/15 02:56:17;;;;;;;1999.90;999.90;;;-0.40;99.90;;;;;;4989373;28;20479;-70
2022/12/15 02:58:50;;;;;;;1999.90;999.90;;;-0.40;99.90;;;;;;4989368;28;20451;-70
2022/12/15 03:01:26;;;;;;;1999.90;999.90;;;-0.20;99.90;;;;;;4989457;28;20442;-70
2022/12/15 03:03:53;;;;;;;1999.90;999.90;;;-0.10;99.90;;;;;;4989242;28;20466;-70
2022/12/15 03:06:20;;;;;;;1999.90;999.90;;;-0.20;99.90;;;;;;4988987;28;20458;-69
2022/12/15 03:08:47;;;;;;;1999.90;999.90;;;-0.30;99.90;;;;;;4988520;28;20447;-69
2022/12/15 03:11:14;;;;;;;1999.90;999.90;;;-0.20;99.90;;;;;;4988651;28;20485;-69
2022/12/15 03:13:41;;;;;;;1999.90;999.90;;;-0.30;99.90;;;;;;4988885;28;20466;-69
2022/12/15 03:16:08;;;;;;;1999.90;999.90;;;-0.30;99.90;;;;;;4988412;28;20842;-69
2022/12/15 03:18:36;;;;;;;1999.90;999.90;;;-0.30;99.90;;;;;;4988663;28;20465;-69
2022/12/15 03:21:03;;;;;;;1999.90;999.90;;;-0.30;99.90;;;;;;4988628;28;20443;-69
2022/12/15 03:23:29;;;;;;;1999.90;999.90;;;-0.20;99.90;;;;;;4988375;28;20472;-69
2022/12/15 03:25:56;;;;;;;1999.90;999.90;;;-0.20;99.90;;;;;;5004479;28;20963;-69
2022/12/15 03:28:23;;;;;;;1999.90;999.90;;;-0.10;99.90;;;;;;5027581;28;20827;-71
2022/12/15 03:30:50;;;;;;;1999.90;999.90;;;-0.10;99.90;;;;;;5027797;28;20460;-69
2022/12/15 03:33:16;;;;;;;1999.90;999.90;;;-0.10;99.90;;;;;;5027986;28;20469;-70
2022/12/15 03:35:45;;;;;;;1999.90;999.90;;;0.00;99.90;;;;;;5028196;28;20456;-70
2022/12/15 03:38:12;;;;;;;1999.90;999.90;;;0.00;99.90;;;;;;5027339;28;20460;-69
2022/12/15 03:40:38;;;;;;;1999.90;999.90;;;-0.10;99.90;;;;;;5027621;28;20455;-69
2022/12/15 03:43:05;;;;;;;1999.90;999.90;;;-0.20;99.90;;;;;;5027335;28;21070;-70
2022/12/15 03:45:32;;;;;;;1999.90;999.90;;;-0.30;99.90;;;;;;5027090;28;20911;-71
2022/12/15 03:47:59;;;;;;;1999.90;999.90;;;-0.40;99.90;;;;;;5027799;28;20847;-70
2022/12/15 03:50:28;;;;;;;1999.90;999.90;;;-0.40;99.90;;;;;;5027139;28;20544;-72
2022/12/15 03:52:57;;;;;;;1999.90;999.90;;;-0.50;99.90;;;;;;5027494;28;20488;-70
2022/12/15 03:55:25;;;;;;;1999.90;999.90;;;-0.50;99.90;;;;;;5027384;28;20889;-70
2022/12/15 03:57:52;;;;;;;1999.90;999.90;;;-0.50;99.90;;;;;;5027306;28;20984;-71
2022/12/15 04:00:20;;;;;;;1999.90;999.90;;;-0.50;99.90;;;;;;5026866;28;20441;-70
2022/12/15 04:02:48;;;;;;;1999.90;999.90;;;-0.60;99.90;;;;;;5027393;28;20461;-69
2022/12/15 04:05:18;;;;;;;1999.90;999.90;;;-0.60;99.90;;;;;;5027157;28;20942;-70
2022/12/15 04:07:45;;;;;;;1999.90;999.90;;;-0.60;99.90;;;;;;5027467;28;20448;-69
2022/12/15 04:10:13;;;;;;;1999.90;999.90;;;-0.50;99.90;;;;;;5026912;28;20444;-70
2022/12/15 04:12:40;;;;;;;1999.90;999.90;;;-0.50;99.90;;;;;;5027167;28;21273;-71
2022/12/15 04:15:08;;;;;;;1999.90;999.90;;;-0.40;99.90;;;;;;5027490;28;20958;-70
2022/12/15 04:17:35;;;;;;;1999.90;999.90;;;-0.30;99.90;;;;;;5027406;28;20461;-70
2022/12/15 04:20:09;;;;;;;1999.90;999.90;;;-0.40;99.90;;;;;;5027330;28;20472;-69
2022/12/15 04:22:37;;;;;;;1999.90;999.90;;;-0.40;99.90;;;;;;5027240;28;20475;-69
2022/12/15 05:33:43;;;;;;;1999.90;999.90;;;-0.50;99.90;;;;;;5030141;28;20439;-70
2022/12/15 05:36:10;;;;;;;1999.90;999.90;;;-0.50;99.90;;;;;;5030174;28;20504;-69
2022/12/15 05:38:37;;;;;;;1999.90;999.90;;;-0.40;99.90;;;;;;5029929;28;20445;-70
2022/12/15 05:41:04;;;;;;;1999.90;999.90;;;-0.40;99.90;;;;;;5029977;28;20812;-72
2022/12/15 05:43:31;;;;;;;1999.90;999.90;;;-0.30;99.90;;;;;;5029542;28;20922;-70
2022/12/15 05:46:03;;;;;;;1999.90;999.90;;;-0.30;99.90;;;;;;5029811;28;20834;-69
2022/12/15 05:48:29;;;;;;;1999.90;999.90;;;-0.30;99.90;;;;;;5029064;28;20800;-69
2022/12/15 05:50:58;;;;;;;1999.90;999.90;;;-0.50;99.90;;;;;;5029930;28;20552;-69
2022/12/15 05:53:24;;;;;;;1999.90;999.90;;;-0.50;99.90;;;;;;5029452;28;20491;-67
2022/12/15 05:55:51;;;;;;;1999.90;999.90;;;-0.30;99.90;;;;;;5029660;28;20456;-69
2022/12/15 05:58:18;;;;;;;1999.90;999.90;;;-0.20;99.90;;;;;;5029397;28;20451;-68
2022/12/15 06:00:45;;;;;;;1999.90;999.90;;;-0.30;99.90;;;;;;5029542;28;20455;-67
2022/12/15 06:03:11;;;;;;;1999.90;999.90;;;-0.30;99.90;;;;;;5029672;28;20468;-67
2022/12/15 06:05:39;;;;;;;1999.90;999.90;;;-0.20;99.90;;;;;;4997393;28;20454;-67
2022/12/15 06:08:07;;;;;;;1999.90;999.90;;;-0.20;99.90;;;;;;4997811;28;20454;-67
2022/12/15 06:10:34;;;;;;;1999.90;999.90;;;-0.20;99.90;;;;;;4997663;28;20473;-68
2022/12/15 06:13:01;;;;;;;1999.90;999.90;;;-0.20;99.90;;;;;;5003935;28;20883;-67
2022/12/15 06:15:28;;;;;;;1999.90;999.90;;;-0.20;99.90;;;;;;5002780;28;20487;-68
2022/12/15 06:17:55;;;;;;;1999.90;999.90;;;-0.20;99.90;;;;;;4998973;28;21023;-67
2022/12/15 06:20:23;;;;;;;1999.90;999.90;;;-0.20;99.90;;;;;;5008013;28;20500;-68
2022/12/15 06:22:49;;;;;;;1999.90;999.90;;;-0.20;99.90;;;;;;5008622;28;20556;-68
2022/12/15 06:25:18;;;;;;;1999.90;999.90;;;-0.20;99.90;;;;;;5008889;28;20453;-68
2022/12/15 06:27:44;;;;;;;1999.90;999.90;;;-0.20;99.90;;;;;;5001203;28;20481;-68
2022/12/15 06:30:12;;;;;;;1999.90;999.90;;;-0.20;99.90;;;;;;5005316;28;20455;-69
2022/12/15 06:32:39;;;;;;;1999.90;999.90;;;-0.20;99.90;;;;;;5005162;28;20486;-68
2022/12/15 06:35:06;;;;;;;1999.90;999.90;;;-0.20;99.90;;;;;;5009359;28;20450;-69
2022/12/15 06:37:33;;;;;;;1999.90;999.90;;;-0.30;99.90;;;;;;5009262;28;20450;-67
2022/12/15 06:40:00;;;;;;;1999.90;999.90;;;-0.30;99.90;;;;;;5008546;28;20854;-67
2022/12/15 06:42:28;;;;;;;1999.90;999.90;;;-0.40;99.90;;;;;;5008852;28;20495;-67
2022/12/15 06:44:55;;;;;;;1999.90;999.90;;;-0.50;99.90;;;;;;5009267;28;20817;-68
2022/12/15 06:47:22;;;;;;;1999.90;999.90;;;-0.50;99.90;;;;;;5008669;28;20449;-67
2022/12/15 06:49:49;;;;;;;1999.90;999.90;;;-0.50;99.90;;;;;;5008488;28;20456;-68
2022/12/15 06:52:16;;;;;;;1999.90;999.90;;;-0.60;99.90;;;;;;5004501;28;20481;-67
2022/12/15 06:54:42;;;;;;;1999.90;999.90;;;-0.50;99.90;;;;;;5007096;28;20454;-67
2022/12/15 06:57:09;;;;;;;1999.90;999.90;;;-0.50;99.90;;;;;;5002692;28;20450;-68
2022/12/15 06:59:38;;;;;;;1999.90;999.90;;;-0.50;99.90;;;;;;5000191;28;20520;-69
2022/12/15 07:02:04;;;;;;;1999.90;999.90;;;-0.60;99.90;;;;;;4999676;28;20450;-68
2022/12/15 07:04:32;;;;;;;1999.90;999.90;;;-0.60;99.90;;;;;;4997672;28;20454;-69
2022/12/15 07:06:58;;;;;;;1999.90;999.90;;;-0.60;99.90;;;;;;5003896;28;20985;-69
2022/12/15 07:09:26;;;;;;;1999.90;999.90;;;-0.50;99.90;;;;;;5008011;28;21014;-70
2022/12/15 07:11:53;;;;;;;1999.90;999.90;;;-0.60;99.90;;;;;;5003996;28;20508;-69
2022/12/15 07:14:19;;;;;;;1999.90;999.90;;;-0.50;99.90;;;;;;4997078;28;20543;-69
2022/12/15 07:16:48;;;;;;;1999.90;999.90;;;-0.60;99.90;;;;;;5006094;28;20453;-68
2022/12/15 07:19:14;;;;;;;1999.90;999.90;;;-0.50;99.90;;;;;;5001612;28;20449;-68
2022/12/15 07:21:41;;;;;;;1999.90;999.90;;;-0.50;99.90;;;;;;5005175;28;20859;-68
2022/12/15 07:24:11;;;;;;;1999.90;999.90;;;-0.50;99.90;;;;;;5008874;28;20471;-66
2022/12/15 07:26:37;;;;;;;1999.90;999.90;;;-0.50;99.90;;;;;;5008111;28;20505;-71
2022/12/15 07:29:04;;;;;;;1999.90;999.90;;;-0.40;99.90;;;;;;5006708;28;20474;-73
2022/12/15 07:31:31;;;;;;;1999.90;999.90;;;-0.30;99.90;;;;;;5007690;28;20442;-71
2022/12/15 07:33:59;;;;;;;1999.90;999.90;;;-0.30;99.90;;;;;;5005180;28;20489;-72
2022/12/15 07:36:27;;;;;;;1999.90;999.90;;;-0.30;99.90;;;;;;5003955;28;20458;-71
2022/12/15 07:38:57;;;;;;;1999.90;999.90;;;-0.20;99.90;;;;;;5000031;28;20446;-68
2022/12/15 07:41:24;;;;;;;1999.90;999.90;;;-0.30;99.90;;;;;;5004471;28;20453;-69
2022/12/15 07:43:51;;;;;;;1999.90;999.90;;;-0.30;99.90;;;;;;5007907;28;20475;-71
2022/12/15 07:46:18;;;;;;;1999.90;999.90;;;-0.30;99.90;;;;;;5008181;28;20464;-70
2022/12/15 07:48:46;;;;;;;1999.90;999.90;;;-0.30;99.90;;;;;;5015429;28;20457;-69
2022/12/15 07:51:14;;;;;;;1999.90;999.90;;;-0.20;99.90;;;;;;5016157;28;20450;-72
2022/12/15 07:53:41;;;;;;;1999.90;999.90;;;-0.30;99.90;;;;;;5006468;28;20496;-70
2022/12/15 07:56:08;;;;;;;1999.90;999.90;;;-0.30;99.90;;;;;;5010763;28;20891;-70
2022/12/15 07:58:35;;;;;;;1999.90;999.90;;;-0.30;99.90;;;;;;5010055;28;21080;-68
2022/12/15 08:01:03;;;;;;;1999.90;999.90;;;-0.20;99.90;;;;;;5014864;28;20458;-71
2022/12/15 08:03:30;;;;;;;1999.90;999.90;;;-0.20;99.90;;;;;;5003455;28;20490;-70
2022/12/15 08:05:57;;;;;;;1999.90;999.90;;;-0.20;99.90;;;;;;5006147;28;20526;-71
2022/12/15 08:08:25;;;;;;;1999.90;999.90;;;-0.30;99.90;;;;;;5007412;28;20450;-71
2022/12/15 08:10:53;;;;;;;1999.90;999.90;;;-0.30;99.90;;;;;;5007302;28;20457;-70
2022/12/15 08:13:20;;;;;;;1999.90;999.90;;;-0.10;99.90;;;;;;5007669;28;20493;-70
2022/12/15 08:15:47;;;;;;;1999.90;999.90;;;0.00;99.90;;;;;;5007319;28;20458;-70
2022/12/15 08:18:13;;;;;;;1999.90;999.90;;;0.10;99.90;;;;;;5006562;28;20704;-70
2022/12/15 08:20:40;;;;;;;1999.90;999.90;;;0.30;99.90;;;;;;5007512;28;20438;-71
2022/12/15 08:23:07;;;;;;;1999.90;999.90;;;0.30;99.90;;;;;;5001967;28;21125;-69
2022/12/15 08:25:35;;;;;;;1999.90;999.90;;;0.30;99.90;;;;;;5006596;28;20954;-71
2022/12/15 08:28:03;;;;;;;1999.90;999.90;;;0.20;99.90;;;;;;5006119;28;20450;-70
2022/12/15 08:30:31;;;;;;;1999.90;999.90;;;0.20;99.90;;;;;;5006040;28;20533;-69
2022/12/15 08:32:58;;;;;;;1999.90;999.90;;;0.20;99.90;;;;;;5008576;28;21189;-69
2022/12/15 08:35:25;;;;;;;1999.90;999.90;;;0.10;99.90;;;;;;5007665;28;20857;-70
2022/12/15 08:37:52;;;;;;;1999.90;999.90;;;0.20;99.90;;;;;;5004789;28;20454;-69
2022/12/15 08:40:19;;;;;;;1999.90;999.90;;;0.40;99.90;;;;;;5009982;28;20447;-67
2022/12/15 08:42:47;;;;;;;1999.90;999.90;;;0.60;99.90;;;;;;5010039;28;20470;-67
2022/12/15 08:45:13;;;;;;;1999.90;999.90;;;0.80;99.90;;;;;;5010534;28;20457;-67
2022/12/15 08:47:40;;;;;;;1999.90;999.90;;;0.90;99.90;;;;;;5002189;28;20450;-68
2022/12/15 08:50:08;;;;;;;1999.90;999.90;;;0.90;99.90;;;;;;5003860;28;20442;-67
2022/12/15 08:52:40;;;;;;;1999.90;999.90;;;0.90;99.90;;;;;;5010484;28;20485;-68
2022/12/15 08:55:10;;;;;;;1999.90;999.90;;;0.80;99.90;;;;;;5010159;28;20457;-67
2022/12/15 08:57:37;;;;;;;1999.90;999.90;;;0.80;99.90;;;;;;5009835;28;20963;-68
2022/12/15 09:00:06;;;;;;;1999.90;999.90;;;0.90;99.90;;;;;;5009209;28;20450;-67
2022/12/15 09:02:33;;;;;;;1999.90;999.90;;;0.90;99.90;;;;;;5009338;28;20465;-67
2022/12/15 09:04:59;;;;;;;1999.90;999.90;;;1.00;99.90;;;;;;5009589;28;20895;-67
2022/12/15 09:07:26;;;;;;;1999.90;999.90;;;1.20;99.90;;;;;;5006140;28;20480;-66
2022/12/15 09:09:53;;;;;;;1999.90;999.90;;;1.30;99.90;;;;;;4999993;28;20474;-68
2022/12/15 09:12:20;;;;;;;1999.90;999.90;;;1.50;99.90;;;;;;5009852;28;21047;-67
2022/12/15 09:14:46;;;;;;;1999.90;999.90;;;1.40;99.90;;;;;;5010279;28;20442;-67
2022/12/15 09:17:15;;;;;;;1999.90;999.90;;;1.20;99.90;;;;;;5002872;28;20560;-67
2022/12/15 09:19:42;;;;;;;1999.90;999.90;;;1.00;99.90;;;;;;4998087;28;20501;-67
2022/12/15 09:22:08;;;;;;;1999.90;999.90;;;0.90;99.90;;;;;;4998125;28;20465;-68
2022/12/15 09:24:35;;;;;;;1999.90;999.90;;;0.80;99.90;;;;;;5003241;28;20457;-67
2022/12/15 09:27:03;;;;;;;1999.90;999.90;;;0.90;99.90;;;;;;5009633;28;20461;-68
2022/12/15 09:29:29;;;;;;;1999.90;999.90;;;0.90;99.90;;;;;;5009441;28;20446;-68
2022/12/15 09:31:56;;;;;;;1999.90;999.90;;;0.90;99.90;;;;;;5009983;28;20445;-68
2022/12/15 09:34:24;;;;;;;1999.90;999.90;;;1.00;99.90;;;;;;5006880;28;20481;-68
2022/12/15 09:36:51;;;;;;;1999.90;999.90;;;1.00;99.90;;;;;;5006497;28;20481;-69
2022/12/15 09:39:18;;;;;;;1999.90;999.90;;;0.90;99.90;;;;;;5006076;28;20449;-68
2022/12/15 09:41:52;;;;;;;1999.90;999.90;;;0.80;99.90;;;;;;5010245;28;20442;-68
2022/12/15 09:44:22;;;;;;;1999.90;999.90;;;0.70;99.90;;;;;;5010119;28;21036;-69
2022/12/15 09:46:58;;;;;;;1999.90;999.90;;;0.80;99.90;;;;;;5010917;28;20452;-69
2022/12/15 09:49:42;;;;;;;1999.90;999.90;;;0.90;99.90;;;;;;5002043;28;20454;-68
2022/12/15 09:52:12;;;;;;;1999.90;999.90;;;1.00;99.90;;;;;;5002534;28;20457;-69
2022/12/15 09:54:41;;;;;;;1999.90;999.90;;;1.20;99.90;;;;;;5007236;28;20442;-69
2022/12/15 09:57:14;;;;;;;1999.90;999.90;;;1.30;99.90;;;;;;5003748;28;20511;-66
2022/12/15 09:59:54;;;;;;;1999.90;999.90;;;1.40;99.90;;;;;;5008610;28;20446;-68
2022/12/15 10:02:38;;;;;;;1999.90;999.90;;;1.30;99.90;;;;;;5008859;28;20847;-68
2022/12/15 10:05:16;;;;;;;1999.90;999.90;;;1.20;99.90;;;;;;5008902;28;20452;-69
2022/12/15 10:07:45;;;;;;;1999.90;999.90;;;1.10;99.90;;;;;;5009096;28;20445;-68
2022/12/15 10:10:17;;;;;;;1999.90;999.90;;;1.10;99.90;;;;;;5009047;28;20481;-68
2022/12/15 10:12:46;;;;;;;1999.90;999.90;;;1.10;99.90;;;;;;5001456;28;20486;-69
2022/12/15 10:15:20;;;;;;;1999.90;999.90;;;1.10;99.90;;;;;;5003221;28;20469;-69
2022/12/15 10:17:52;;;;;;;1999.90;999.90;;;1.10;99.90;;;;;;5008966;28;20519;-69
2022/12/15 10:20:22;;;;;;;1999.90;999.90;;;1.10;99.90;;;;;;5006863;28;20456;-67
2022/12/15 10:22:50;;;;;;;1999.90;999.90;;;1.20;99.90;;;;;;5000933;28;21425;-68
2022/12/15 10:25:19;;;;;;;1999.90;999.90;;;1.10;99.90;;;;;;5000891;28;20461;-71
2022/12/15 10:27:58;;;;;;;1999.90;999.90;;;1.00;99.90;;;;;;5003659;28;20484;-68
2022/12/15 10:30:25;;;;;;;1999.90;999.90;;;1.00;99.90;;;;;;5000568;28;20446;-68
2022/12/15 10:33:01;;;;;;;1999.90;999.90;;;0.90;99.90;;;;;;5003598;28;20487;-68
2022/12/15 10:35:32;;;;;;;1999.90;999.90;;;0.80;99.90;;;;;;5002987;28;20454;-68
2022/12/15 10:38:01;;;;;;;1999.90;999.90;;;0.80;99.90;;;;;;5007932;28;21026;-67
2022/12/15 10:40:47;;;;;;;1999.90;999.90;;;0.80;99.90;;;;;;5009263;28;20836;-67
2022/12/15 10:43:23;;;;;;;1999.90;999.90;;;0.70;99.90;;;;;;4999358;28;20818;-67
2022/12/15 10:45:59;;;;;;;1999.90;999.90;;;0.70;99.90;;;;;;5007200;28;20457;-68
2022/12/15 10:48:26;;;;;;;1999.90;999.90;;;0.80;99.90;;;;;;5008586;28;20817;-69
2022/12/15 10:51:22;;;;;;;1999.90;999.90;;;0.80;99.90;;;;;;5009340;28;20477;-68
2022/12/15 10:53:51;;;;;;;1999.90;999.90;;;0.90;99.90;;;;;;5000040;28;20482;-69
2022/12/15 10:56:24;;;;;;;1999.90;999.90;;;0.80;99.90;;;;;;5008622;28;21014;-69
2022/12/15 10:58:52;;;;;;;1999.90;999.90;;;0.90;99.90;;;;;;5008907;28;20951;-69
2022/12/15 11:01:23;;;;;;;1999.90;999.90;;;1.10;99.90;;;;;;5009116;28;20955;-69
2022/12/15 11:03:51;;;;;;;1999.90;999.90;;;1.30;99.90;;;;;;5008202;28;20470;-66
2022/12/15 11:06:22;;;;;;;1999.90;999.90;;;1.50;99.90;;;;;;5006011;28;20465;-68
2022/12/15 11:08:50;;;;;;;1999.90;999.90;;;1.60;99.90;;;;;;5007809;28;20500;-68
2022/12/15 11:14:18;;;;;;;1999.90;999.90;;;1.80;99.90;;;;;;5000312;28;20482;-67
2022/12/15 11:16:52;;;;;;;1999.90;999.90;;;1.90;99.90;;;;;;5005968;28;20550;-67
2022/12/15 11:19:30;;;;;;;1999.90;999.90;;;1.90;99.90;;;;;;5008192;28;21019;-66
2022/12/15 11:22:04;;;;;;;1999.90;999.90;;;2.10;99.90;;;;;;5008365;28;20955;-69
2022/12/15 11:24:38;;;;;;;1999.90;999.90;;;2.20;99.90;;;;;;5006450;28;20839;-69
2022/12/15 11:27:14;;;;;;;1999.90;999.90;;;2.30;99.90;;;;;;5008238;28;20450;-68
2022/12/15 11:29:51;;;;;;;1999.90;999.90;;;2.20;99.90;;;;;;4998995;28;20495;-68
2022/12/15 11:32:22;;;;;;;1999.90;999.90;;;2.00;99.90;;;;;;5008182;28;20468;-68
2022/12/15 11:34:49;;;;;;;1999.90;999.90;;;1.70;99.90;;;;;;5008754;28;20493;-69
2022/12/15 11:37:40;;;;;;;1999.90;999.90;;;1.60;99.90;;;;;;5007785;28;20553;-67
2022/12/15 11:40:35;;;;;;;1999.90;999.90;;;1.40;99.90;;;;;;5004986;28;20834;-69
2022/12/15 11:43:23;;;;;;;1999.90;999.90;;;1.20;99.90;;;;;;4998409;28;20477;-68
2022/12/15 11:46:03;;;;;;;1999.90;999.90;;;1.20;99.90;;;;;;5014032;28;20445;-69
2022/12/15 11:48:38;;;;;;;1999.90;999.90;;;1.30;99.90;;;;;;5013933;28;20443;-67
2022/12/15 11:51:11;;;;;;;1999.90;999.90;;;1.30;99.90;;;;;;5015791;28;20437;-68
2022/12/15 11:54:10;;;;;;;1999.90;999.90;;;1.30;99.90;;;;;;5007159;28;20495;-68
2022/12/15 11:56:42;;;;;;;1999.90;999.90;;;1.40;99.90;;;;;;4998170;28;20463;-69
2022/12/15 11:59:37;;;;;;;1999.90;999.90;;;1.50;99.90;;;;;;5010193;28;20917;-68
2022/12/15 12:02:36;;;;;;;1999.90;999.90;;;1.60;99.90;;;;;;5016303;28;20446;-69
2022/12/15 12:05:26;;;;;;;1999.90;999.90;;;1.70;99.90;;;;;;4990995;28;20458;-68
2022/12/15 12:08:03;;;;;;;1999.90;999.90;;;1.50;99.90;;;;;;5005901;28;20528;-70
2022/12/15 12:10:39;;;;;;;1999.90;999.90;;;1.40;99.90;;;;;;5006785;28;20453;-68
2022/12/15 12:13:14;;;;;;;1999.90;999.90;;;1.40;99.90;;;;;;4985548;28;20998;-69
2022/12/15 12:15:52;;;;;;;1999.90;999.90;;;1.40;99.90;;;;;;5007084;28;20460;-69
2022/12/15 12:18:23;;;;;;;1999.90;999.90;;;1.40;99.90;;;;;;5000950;28;20942;-68
2022/12/15 12:20:55;;;;;;;1999.90;999.90;;;1.40;99.90;;;;;;4997514;28;20455;-68
2022/12/15 12:23:28;;;;;;;1999.90;999.90;;;1.40;99.90;;;;;;5007359;28;20472;-69
2022/12/15 12:26:02;;;;;;;1999.90;999.90;;;1.40;99.90;;;;;;5002345;28;21046;-68
2022/12/15 12:28:35;;;;;;;1999.90;999.90;;;1.30;99.90;;;;;;5003478;28;20535;-69
2022/12/15 12:31:03;;;;;;;1999.90;999.90;;;1.30;99.90;;;;;;5004897;28;20462;-69
2022/12/15 12:33:35;;;;;;;1999.90;999.90;;;1.40;99.90;;;;;;5015818;28;20496;-69
2022/12/15 12:36:08;;;;;;;1999.90;999.90;;;1.50;99.90;;;;;;5018413;28;20464;-69
2022/12/15 12:38:39;;;;;;;1999.90;999.90;;;1.70;99.90;;;;;;5015944;28;20438;-68
2022/12/15 12:41:11;;;;;;;1999.90;999.90;;;1.90;99.90;;;;;;5011339;28;20552;-67
2022/12/15 12:43:42;;;;;;;1999.90;999.90;;;2.20;99.90;;;;;;5004134;28;20542;-68
2022/12/15 12:46:16;;;;;;;1999.90;999.90;;;2.30;99.90;;;;;;5003749;28;20441;-68
2022/12/15 12:48:46;;;;;;;1999.90;999.90;;;2.50;99.90;;;;;;5004734;28;20463;-68
2022/12/15 12:51:27;;;;;;;1999.90;999.90;;;2.60;99.90;;;;;;5012949;28;20458;-68
2022/12/15 12:53:54;;;;;;;1999.90;999.90;;;2.70;99.90;;;;;;5013448;28;20532;-68
2022/12/15 12:56:44;;;;;;;1999.90;999.90;;;2.60;99.90;;;;;;5004557;28;20461;-67
2022/12/15 12:59:37;;;;;;;1999.90;999.90;;;2.60;99.90;;;;;;5003626;28;21230;-67
2022/12/15 13:02:55;;;;;;;1999.90;999.90;;;2.70;99.90;;;;;;5014066;28;20442;-68
2022/12/15 13:05:34;;;;;;;1999.90;999.90;;;2.80;99.90;;;;;;4947079;28;20458;-68
2022/12/15 13:08:49;;;;;;;1999.90;999.90;;;3.00;99.90;;;;;;4998329;28;20457;-69
2022/12/15 13:11:55;;;;;;;1999.90;999.90;;;3.10;99.90;;;;;;4925651;29;20449;-69
2022/12/15 13:14:43;;;;;;;1999.90;999.90;;;2.90;99.90;;;;;;4926885;29;20485;-69
2022/12/15 13:17:16;;;;;;;1999.90;999.90;;;2.60;99.90;;;;;;5003198;28;20488;-68
2022/12/15 13:20:22;;;;;;;1999.90;999.90;;;2.50;99.90;;;;;;5007070;28;20536;-68
2022/12/15 13:22:50;;;;;;;1999.90;999.90;;;2.40;99.90;;;;;;5007406;28;21270;-69
2022/12/15 13:25:41;;;;;;;1999.90;999.90;;;2.50;99.90;;;;;;5005023;28;20445;-69
2022/12/15 13:28:27;;;;;;;1999.90;999.90;;;2.50;99.90;;;;;;5001956;28;20461;-69
2022/12/15 13:31:36;;;;;;;1999.90;999.90;;;2.40;99.90;;;;;;5004148;28;20497;-69
2022/12/15 13:34:19;;;;;;;1999.90;999.90;;;2.50;99.90;;;;;;5010122;28;21021;-70
2022/12/15 13:37:01;;;;;;;1999.90;999.90;;;2.60;99.90;;;;;;5006854;28;20449;-70
2022/12/15 13:39:55;;;;;;;1999.90;999.90;;;2.60;99.90;;;;;;5009900;28;20452;-70
2022/12/15 13:42:34;;;;;;;1999.90;999.90;;;2.60;99.90;;;;;;5004036;28;20461;-69
2022/12/15 13:45:23;;;;;;;1999.90;999.90;;;2.50;99.90;;;;;;5008837;28;20446;-68
2022/12/15 13:47:56;;;;;;;1999.90;999.90;;;2.30;99.90;;;;;;5002970;28;20446;-69
2022/12/15 13:50:33;;;;;;;1999.90;999.90;;;2.20;99.90;;;;;;5006499;28;20557;-68
2022/12/15 13:53:03;;;;;;;1999.90;999.90;;;2.10;99.90;;;;;;5005258;28;20477;-69
2022/12/15 13:55:36;;;;;;;1999.90;999.90;;;2.00;99.90;;;;;;5009710;28;20484;-69
2022/12/15 13:58:07;;;;;;;1999.90;999.90;;;2.00;99.90;;;;;;5003973;28;20446;-69
2022/12/15 14:00:36;;;;;;;1999.90;999.90;;;2.00;99.90;;;;;;4996997;28;20449;-69
2022/12/15 14:03:07;;;;;;;1999.90;999.90;;;1.90;99.90;;;;;;5006606;28;20512;-69
2022/12/15 14:05:36;;;;;;;1999.90;999.90;;;1.90;99.90;;;;;;5007451;28;20548;-70
2022/12/15 14:08:10;;;;;;;1999.90;999.90;;;1.80;99.90;;;;;;5000294;28;20449;-70
2022/12/15 14:10:41;;;;;;;1999.90;999.90;;;1.80;99.90;;;;;;5007100;28;20456;-70
2022/12/15 14:13:13;;;;;;;1999.90;999.90;;;1.80;99.90;;;;;;5013603;28;20460;-70
2022/12/15 14:15:43;;;;;;;1999.90;999.90;;;1.70;99.90;;;;;;5013847;28;20489;-69
2022/12/15 14:18:25;;;;;;;1999.90;999.90;;;1.70;99.90;;;;;;5006989;28;20465;-69
2022/12/15 14:20:53;;;;;;;1999.90;999.90;;;1.60;99.90;;;;;;5008708;28;20539;-70
2022/12/15 14:23:20;;;;;;;1999.90;999.90;;;1.60;99.90;;;;;;5007443;28;20476;-70
2022/12/15 14:25:56;;;;;;;1999.90;999.90;;;1.50;99.90;;;;;;5014854;28;20826;-70
2022/12/15 14:28:26;;;;;;;1999.90;999.90;;;1.50;99.90;;;;;;5005894;28;20459;-70
2022/12/15 14:30:53;;;;;;;1999.90;999.90;;;1.50;99.90;;;;;;5013649;28;20461;-69
2022/12/15 14:33:20;;;;;;;1999.90;999.90;;;1.60;99.90;;;;;;5018577;28;20468;-70
2022/12/15 14:35:48;;;;;;;1999.90;999.90;;;1.60;99.90;;;;;;5020794;28;21106;-70
2022/12/15 14:38:21;;;;;;;1999.90;999.90;;;1.50;99.90;;;;;;5009827;28;20453;-70
2022/12/15 14:40:51;;;;;;;1999.90;999.90;;;1.50;99.90;;;;;;5014262;28;20532;-70
2022/12/15 14:43:23;;;;;;;1999.90;999.90;;;1.40;99.90;;;;;;5016269;28;21350;-70
2022/12/15 14:45:54;;;;;;;1999.90;999.90;;;1.40;99.90;;;;;;5015144;28;20441;-70
2022/12/15 14:48:27;;;;;;;1999.90;999.90;;;1.40;99.90;;;;;;5016766;28;20441;-70